sensor_id;sensor_type;location;lat;lon;timestamp;noise_LAeq;noise_LA_min;noise_LA_max;noise_LA01;noise_LA95
41518;Laerm;27249;48.094;-1.690;2023-11-18T00:02:14;50.93;41.61;62.07;;
41518;Laerm;27249;48.094;-1.690;2023-11-18T00:04:39;53.20;42.29;62.07;;
41518;Laerm;27249;48.094;-1.690;2023-11-18T00:07:05;50.96;42.41;62.03;;
41518;Laerm;27249;48.094;-1.690;2023-11-18T00:09:30;53.72;43.44;63.69;;
41518;Laerm;27249;48.094;-1.690;2023-11-18T00:11:56;54.68;42.88;64.36;;
41518;Laerm;27249;48.094;-1.690;2023-11-18T00:14:21;48.82;42.03;60.14;;
41518;Laerm;27249;48.094;-1.690;2023-11-18T00:16:46;49.72;42.03;62.09;;
41518;Laerm;27249;48.094;-1.690;2023-11-18T00:19:12;51.35;42.35;62.96;;
41518;Laerm;27249;48.094;-1.690;2023-11-18T00:21:37;55.21;42.16;70.24;;
41518;Laerm;27249;48.094;-1.690;2023-11-18T00:24:02;53.82;42.16;64.62;;
41518;Laerm;27249;48.094;-1.690;2023-11-18T00:26:27;46.66;41.96;58.31;;
41518;Laerm;27249;48.094;-1.690;2023-11-18T00:28:54;52.02;42.82;62.32;;
41518;Laerm;27249;48.094;-1.690;2023-11-18T00:31:19;48.53;41.96;60.27;;
41518;Laerm;27249;48.094;-1.690;2023-11-18T00:33:44;47.44;42.09;57.66;;
41518;Laerm;27249;48.094;-1.690;2023-11-18T00:36:10;52.68;41.53;61.35;;
41518;Laerm;27249;48.094;-1.690;2023-11-18T00:38:35;52.15;42.59;61.54;;
41518;Laerm;27249;48.094;-1.690;2023-11-18T00:41:00;48.09;41.46;57.59;;
41518;Laerm;27249;48.094;-1.690;2023-11-18T00:43:25;52.89;41.89;62.82;;
41518;Laerm;27249;48.094;-1.690;2023-11-18T00:45:51;49.20;41.82;57.48;;
41518;Laerm;27249;48.094;-1.690;2023-11-18T00:48:16;51.12;42.22;62.84;;
41518;Laerm;27249;48.094;-1.690;2023-11-18T00:50:41;52.94;42.47;62.66;;
41518;Laerm;27249;48.094;-1.690;2023-11-18T00:53:07;51.35;41.89;61.80;;
41518;Laerm;27249;48.094;-1.690;2023-11-18T00:55:32;54.72;42.09;70.12;;
41518;Laerm;27249;48.094;-1.690;2023-11-18T00:57:57;47.74;41.61;58.78;;
41518;Laerm;27249;48.094;-1.690;2023-11-18T01:00:23;52.24;41.96;66.74;;
41518;Laerm;27249;48.094;-1.690;2023-11-18T01:02:48;52.12;41.38;64.76;;
41518;Laerm;27249;48.094;-1.690;2023-11-18T01:05:15;53.31;40.89;63.52;;
41518;Laerm;27249;48.094;-1.690;2023-11-18T01:07:40;53.15;41.61;66.42;;
41518;Laerm;27249;48.094;-1.690;2023-11-18T01:10:06;47.68;41.14;59.91;;
41518;Laerm;27249;48.094;-1.690;2023-11-18T01:12:31;50.48;41.68;66.88;;
41518;Laerm;27249;48.094;-1.690;2023-11-18T01:14:56;50.41;41.14;60.93;;
41518;Laerm;27249;48.094;-1.690;2023-11-18T01:17:22;50.38;40.98;62.49;;
41518;Laerm;27249;48.094;-1.690;2023-11-18T01:19:47;49.37;41.46;60.36;;
41518;Laerm;27249;48.094;-1.690;2023-11-18T01:22:12;45.83;41.75;55.83;;
41518;Laerm;27249;48.094;-1.690;2023-11-18T01:24:38;46.12;41.81;58.17;;
41518;Laerm;27249;48.094;-1.690;2023-11-18T01:27:03;50.37;42.29;64.67;;
41518;Laerm;27249;48.094;-1.690;2023-11-18T01:29:28;47.51;41.75;57.53;;
41518;Laerm;27249;48.094;-1.690;2023-11-18T01:31:54;48.20;41.46;56.74;;
41518;Laerm;27249;48.094;-1.690;2023-11-18T01:34:21;52.36;41.68;61.23;;
41518;Laerm;27249;48.094;-1.690;2023-11-18T01:36:47;51.84;41.75;65.29;;
41518;Laerm;27249;48.094;-1.690;2023-11-18T01:39:14;51.90;41.61;63.14;;
41518;Laerm;27249;48.094;-1.690;2023-11-18T01:41:40;48.94;41.30;59.42;;
41518;Laerm;27249;48.094;-1.690;2023-11-18T01:44:05;50.99;42.22;59.57;;
41518;Laerm;27249;48.094;-1.690;2023-11-18T01:46:30;48.66;41.14;60.96;;
41518;Laerm;27249;48.094;-1.690;2023-11-18T01:48:56;51.60;41.38;64.21;;
41518;Laerm;27249;48.094;-1.690;2023-11-18T01:51:21;56.46;41.68;73.41;;
41518;Laerm;27249;48.094;-1.690;2023-11-18T01:53:48;45.39;41.46;55.74;;
41518;Laerm;27249;48.094;-1.690;2023-11-18T01:56:15;49.32;40.89;61.92;;
41518;Laerm;27249;48.094;-1.690;2023-11-18T01:58:40;45.05;40.62;57.88;;
41518;Laerm;27249;48.094;-1.690;2023-11-18T02:01:06;50.61;40.98;60.42;;
41518;Laerm;27249;48.094;-1.690;2023-11-18T02:03:33;50.93;41.53;61.73;;
41518;Laerm;27249;48.094;-1.690;2023-11-18T02:05:58;51.76;41.82;62.59;;
41518;Laerm;27249;48.094;-1.690;2023-11-18T02:08:24;50.67;42.09;58.96;;
41518;Laerm;27249;48.094;-1.690;2023-11-18T02:10:54;43.92;41.46;51.87;;
41518;Laerm;27249;48.094;-1.690;2023-11-18T02:13:21;51.15;40.89;63.34;;
41518;Laerm;27249;48.094;-1.690;2023-11-18T02:15:51;48.30;41.75;58.94;;
41518;Laerm;27249;48.094;-1.690;2023-11-18T02:18:17;47.94;40.98;57.41;;
41518;Laerm;27249;48.094;-1.690;2023-11-18T02:20:43;48.08;41.89;59.53;;
41518;Laerm;27249;48.094;-1.690;2023-11-18T02:23:08;52.80;41.46;67.58;;
41518;Laerm;27249;48.094;-1.690;2023-11-18T02:28:04;52.19;40.43;61.80;;
41518;Laerm;27249;48.094;-1.690;2023-11-18T02:30:29;49.32;40.98;58.20;;
41518;Laerm;27249;48.094;-1.690;2023-11-18T02:32:58;53.24;41.06;67.89;;
41518;Laerm;27249;48.094;-1.690;2023-11-18T02:35:25;50.52;41.53;63.52;;
41518;Laerm;27249;48.094;-1.690;2023-11-18T02:37:53;49.23;41.38;61.62;;
41518;Laerm;27249;48.094;-1.690;2023-11-18T02:40:22;48.42;41.22;59.72;;
41518;Laerm;27249;48.094;-1.690;2023-11-18T02:42:49;47.93;41.96;59.94;;
41518;Laerm;27249;48.094;-1.690;2023-11-18T02:45:18;50.76;42.03;64.56;;
41518;Laerm;27249;48.094;-1.690;2023-11-18T02:47:44;49.15;42.09;61.21;;
41518;Laerm;27249;48.094;-1.690;2023-11-18T02:50:10;48.79;41.53;60.62;;
41518;Laerm;27249;48.094;-1.690;2023-11-18T02:52:38;45.02;40.98;52.88;;
41518;Laerm;27249;48.094;-1.690;2023-11-18T02:55:07;47.64;41.75;59.57;;
41518;Laerm;27249;48.094;-1.690;2023-11-18T02:57:33;51.95;41.82;65.33;;
41518;Laerm;27249;48.094;-1.690;2023-11-18T02:59:59;47.44;41.14;62.48;;
41518;Laerm;27249;48.094;-1.690;2023-11-18T03:02:25;48.21;41.06;59.01;;
41518;Laerm;27249;48.094;-1.690;2023-11-18T03:04:52;50.44;41.48;65.82;;
41518;Laerm;27249;48.094;-1.690;2023-11-18T03:07:17;43.55;40.98;47.20;;
41518;Laerm;27249;48.094;-1.690;2023-11-18T03:09:43;49.19;42.59;60.42;;
41518;Laerm;27249;48.094;-1.690;2023-11-18T03:12:08;49.32;42.76;60.28;;
41518;Laerm;27249;48.094;-1.690;2023-11-18T03:14:33;52.38;42.22;67.37;;
41518;Laerm;27249;48.094;-1.690;2023-11-18T03:16:59;50.18;42.03;61.78;;
41518;Laerm;27249;48.094;-1.690;2023-11-18T03:19:25;50.76;42.16;60.35;;
41518;Laerm;27249;48.094;-1.690;2023-11-18T03:21:50;51.62;41.30;65.76;;
41518;Laerm;27249;48.094;-1.690;2023-11-18T03:24:16;47.10;41.61;58.91;;
41518;Laerm;27249;48.094;-1.690;2023-11-18T03:26:41;49.49;41.68;63.77;;
41518;Laerm;27249;48.094;-1.690;2023-11-18T03:29:06;51.37;40.98;60.45;;
41518;Laerm;27249;48.094;-1.690;2023-11-18T03:31:32;49.05;41.61;62.05;;
41518;Laerm;27249;48.094;-1.690;2023-11-18T03:33:58;50.20;41.75;61.74;;
41518;Laerm;27249;48.094;-1.690;2023-11-18T03:36:23;52.60;42.35;65.47;;
41518;Laerm;27249;48.094;-1.690;2023-11-18T03:38:48;52.58;42.53;62.71;;
41518;Laerm;27249;48.094;-1.690;2023-11-18T03:41:14;53.42;42.35;64.71;;
41518;Laerm;27249;48.094;-1.690;2023-11-18T03:43:40;54.03;42.82;64.01;;
41518;Laerm;27249;48.094;-1.690;2023-11-18T03:46:05;49.81;41.96;63.56;;
41518;Laerm;27249;48.094;-1.690;2023-11-18T03:48:30;49.59;42.09;63.27;;
41518;Laerm;27249;48.094;-1.690;2023-11-18T03:50:55;52.84;42.98;65.20;;
41518;Laerm;27249;48.094;-1.690;2023-11-18T03:53:20;53.23;42.35;63.16;;
41518;Laerm;27249;48.094;-1.690;2023-11-18T03:55:46;48.54;42.53;64.58;;
41518;Laerm;27249;48.094;-1.690;2023-11-18T03:58:11;53.74;42.53;62.54;;
41518;Laerm;27249;48.094;-1.690;2023-11-18T04:00:36;56.12;43.86;67.52;;
41518;Laerm;27249;48.094;-1.690;2023-11-18T04:03:02;51.84;41.82;63.49;;
41518;Laerm;27249;48.094;-1.690;2023-11-18T04:05:27;54.35;42.76;63.91;;
41518;Laerm;27249;48.094;-1.690;2023-11-18T04:07:52;48.64;41.82;63.56;;
41518;Laerm;27249;48.094;-1.690;2023-11-18T04:10:19;47.68;41.75;57.97;;
41518;Laerm;27249;48.094;-1.690;2023-11-18T04:12:45;48.73;41.38;61.01;;
41518;Laerm;27249;48.094;-1.690;2023-11-18T04:15:13;44.94;42.29;54.11;;
41518;Laerm;27249;48.094;-1.690;2023-11-18T04:17:38;47.12;42.98;58.11;;
41518;Laerm;27249;48.094;-1.690;2023-11-18T04:20:04;54.74;44.19;67.26;;
41518;Laerm;27249;48.094;-1.690;2023-11-18T04:22:33;53.82;42.82;66.81;;
41518;Laerm;27249;48.094;-1.690;2023-11-18T04:24:58;49.78;41.82;64.87;;
41518;Laerm;27249;48.094;-1.690;2023-11-18T04:27:24;52.08;41.82;65.68;;
41518;Laerm;27249;48.094;-1.690;2023-11-18T04:29:49;52.56;41.82;65.04;;
41518;Laerm;27249;48.094;-1.690;2023-11-18T04:32:14;47.19;41.96;62.92;;
41518;Laerm;27249;48.094;-1.690;2023-11-18T04:34:40;44.94;41.38;60.73;;
41518;Laerm;27249;48.094;-1.690;2023-11-18T04:37:07;53.26;41.82;64.52;;
41518;Laerm;27249;48.094;-1.690;2023-11-18T04:39:32;56.81;43.49;69.28;;
41518;Laerm;27249;48.094;-1.690;2023-11-18T04:41:58;53.34;42.65;63.29;;
41518;Laerm;27249;48.094;-1.690;2023-11-18T04:44:23;49.22;42.71;66.98;;
41518;Laerm;27249;48.094;-1.690;2023-11-18T04:46:49;48.85;42.59;61.13;;
41518;Laerm;27249;48.094;-1.690;2023-11-18T04:49:14;52.52;42.35;63.50;;
41518;Laerm;27249;48.094;-1.690;2023-11-18T04:51:39;47.12;42.65;57.40;;
41518;Laerm;27249;48.094;-1.690;2023-11-18T04:54:05;51.52;42.22;63.43;;
41518;Laerm;27249;48.094;-1.690;2023-11-18T04:56:32;53.92;43.33;65.47;;
41518;Laerm;27249;48.094;-1.690;2023-11-18T04:58:58;53.85;42.03;65.12;;
41518;Laerm;27249;48.094;-1.690;2023-11-18T05:01:23;51.95;42.47;64.42;;
41518;Laerm;27249;48.094;-1.690;2023-11-18T05:03:48;49.64;42.69;64.56;;
41518;Laerm;27249;48.094;-1.690;2023-11-18T05:06:13;53.13;42.95;65.34;;
41518;Laerm;27249;48.094;-1.690;2023-11-18T05:08:39;52.30;42.65;66.14;;
41518;Laerm;27249;48.094;-1.690;2023-11-18T05:11:04;53.61;42.65;63.73;;
41518;Laerm;27249;48.094;-1.690;2023-11-18T05:13:29;55.45;42.88;66.36;;
41518;Laerm;27249;48.094;-1.690;2023-11-18T05:15:55;54.89;44.03;66.11;;
41518;Laerm;27249;48.094;-1.690;2023-11-18T05:18:20;53.62;42.71;66.71;;
41518;Laerm;27249;48.094;-1.690;2023-11-18T05:20:46;55.42;43.58;69.21;;
41518;Laerm;27249;48.094;-1.690;2023-11-18T05:23:11;53.16;43.24;64.29;;
41518;Laerm;27249;48.094;-1.690;2023-11-18T05:25:39;54.19;43.19;65.18;;
41518;Laerm;27249;48.094;-1.690;2023-11-18T05:28:04;49.15;42.22;61.12;;
41518;Laerm;27249;48.094;-1.690;2023-11-18T05:30:33;53.91;42.29;66.31;;
41518;Laerm;27249;48.094;-1.690;2023-11-18T05:32:58;52.63;42.71;64.25;;
41518;Laerm;27249;48.094;-1.690;2023-11-18T05:35:24;52.31;42.65;61.38;;
41518;Laerm;27249;48.094;-1.690;2023-11-18T05:37:53;48.98;42.03;68.69;;
41518;Laerm;27249;48.094;-1.690;2023-11-18T05:40:19;47.01;41.89;66.83;;
41518;Laerm;27249;48.094;-1.690;2023-11-18T05:42:45;49.65;41.96;64.57;;
41518;Laerm;27249;48.094;-1.690;2023-11-18T05:45:13;54.86;43.24;64.63;;
41518;Laerm;27249;48.094;-1.690;2023-11-18T05:47:52;51.88;43.34;63.57;;
41518;Laerm;27249;48.094;-1.690;2023-11-18T05:50:17;52.80;42.03;63.74;;
41518;Laerm;27249;48.094;-1.690;2023-11-18T05:52:42;51.48;43.29;62.68;;
41518;Laerm;27249;48.094;-1.690;2023-11-18T05:55:08;56.31;43.44;66.85;;
41518;Laerm;27249;48.094;-1.690;2023-11-18T05:57:33;54.52;43.94;65.22;;
41518;Laerm;27249;48.094;-1.690;2023-11-18T06:00:00;54.02;43.24;65.19;;
41518;Laerm;27249;48.094;-1.690;2023-11-18T06:02:26;55.33;43.29;64.10;;
41518;Laerm;27249;48.094;-1.690;2023-11-18T06:04:51;52.93;44.65;62.53;;
41518;Laerm;27249;48.094;-1.690;2023-11-18T06:07:17;49.22;43.14;61.44;;
41518;Laerm;27249;48.094;-1.690;2023-11-18T06:09:44;55.39;43.44;64.72;;
41518;Laerm;27249;48.094;-1.690;2023-11-18T06:12:10;54.08;45.11;64.64;;
41518;Laerm;27249;48.094;-1.690;2023-11-18T06:14:38;53.63;45.23;64.98;;
41518;Laerm;27249;48.094;-1.690;2023-11-18T06:17:03;53.78;44.97;64.91;;
41518;Laerm;27249;48.094;-1.690;2023-11-18T06:19:28;57.92;46.20;70.14;;
41518;Laerm;27249;48.094;-1.690;2023-11-18T06:21:54;56.65;47.91;68.44;;
41518;Laerm;27249;48.094;-1.690;2023-11-18T06:24:19;55.03;47.88;65.71;;
41518;Laerm;27249;48.094;-1.690;2023-11-18T06:26:46;58.08;52.46;63.84;;
41518;Laerm;27249;48.094;-1.690;2023-11-18T06:29:12;59.31;49.77;69.67;;
41518;Laerm;27249;48.094;-1.690;2023-11-18T06:31:37;54.18;45.99;64.13;;
41518;Laerm;27249;48.094;-1.690;2023-11-18T06:34:02;56.05;46.28;67.66;;
41518;Laerm;27249;48.094;-1.690;2023-11-18T06:36:28;57.24;51.09;67.53;;
41518;Laerm;27249;48.094;-1.690;2023-11-18T06:38:56;57.55;50.17;70.30;;
41518;Laerm;27249;48.094;-1.690;2023-11-18T06:41:22;59.49;52.75;66.91;;
41518;Laerm;27249;48.094;-1.690;2023-11-18T06:43:59;60.27;52.94;67.68;;
41518;Laerm;27249;48.094;-1.690;2023-11-18T06:46:33;57.23;47.34;72.60;;
41518;Laerm;27249;48.094;-1.690;2023-11-18T06:48:59;55.69;44.73;75.73;;
41518;Laerm;27249;48.094;-1.690;2023-11-18T06:51:28;56.46;45.33;64.79;;
41518;Laerm;27249;48.094;-1.690;2023-11-18T06:53:54;52.95;44.03;62.65;;
41518;Laerm;27249;48.094;-1.690;2023-11-18T06:56:20;58.04;44.31;65.75;;
41518;Laerm;27249;48.094;-1.690;2023-11-18T06:58:45;54.05;44.73;61.52;;
41518;Laerm;27249;48.094;-1.690;2023-11-18T07:01:13;56.06;45.04;64.44;;
41518;Laerm;27249;48.094;-1.690;2023-11-18T07:03:40;53.83;44.58;62.68;;
41518;Laerm;27249;48.094;-1.690;2023-11-18T07:06:06;53.58;44.23;69.44;;
41518;Laerm;27249;48.094;-1.690;2023-11-18T07:08:31;58.99;46.02;72.22;;
41518;Laerm;27249;48.094;-1.690;2023-11-18T07:11:00;58.22;46.30;69.81;;
41518;Laerm;27249;48.094;-1.690;2023-11-18T07:13:26;57.14;44.89;67.11;;
41518;Laerm;27249;48.094;-1.690;2023-11-18T07:15:51;52.02;44.90;69.24;;
41518;Laerm;27249;48.094;-1.690;2023-11-18T07:18:18;56.88;46.73;65.77;;
41518;Laerm;27249;48.094;-1.690;2023-11-18T07:20:47;57.85;49.35;74.35;;
41518;Laerm;27249;48.094;-1.690;2023-11-18T07:23:12;57.07;47.63;68.32;;
41518;Laerm;27249;48.094;-1.690;2023-11-18T07:25:37;55.55;45.45;64.89;;
41518;Laerm;27249;48.094;-1.690;2023-11-18T07:28:03;59.24;48.60;70.08;;
41518;Laerm;27249;48.094;-1.690;2023-11-18T07:30:30;56.93;47.59;67.32;;
41518;Laerm;27249;48.094;-1.690;2023-11-18T07:32:55;58.82;45.97;77.15;;
41518;Laerm;27249;48.094;-1.690;2023-11-18T07:35:24;61.78;48.00;85.04;;
41518;Laerm;27249;48.094;-1.690;2023-11-18T07:37:49;59.38;47.70;77.30;;
41518;Laerm;27249;48.094;-1.690;2023-11-18T07:40:14;58.81;49.55;66.28;;
41518;Laerm;27249;48.094;-1.690;2023-11-18T07:42:46;58.26;46.93;68.55;;
41518;Laerm;27249;48.094;-1.690;2023-11-18T07:45:12;58.02;45.07;65.81;;
41518;Laerm;27249;48.094;-1.690;2023-11-18T07:47:42;60.23;47.08;69.28;;
41518;Laerm;27249;48.094;-1.690;2023-11-18T07:50:07;58.74;49.71;69.26;;
41518;Laerm;27249;48.094;-1.690;2023-11-18T07:52:34;61.62;49.15;78.93;;
41518;Laerm;27249;48.094;-1.690;2023-11-18T07:55:00;58.61;52.45;67.71;;
41518;Laerm;27249;48.094;-1.690;2023-11-18T07:57:25;59.55;50.55;68.89;;
41518;Laerm;27249;48.094;-1.690;2023-11-18T07:59:52;56.19;47.59;64.79;;
41518;Laerm;27249;48.094;-1.690;2023-11-18T08:02:18;55.67;46.05;63.05;;
41518;Laerm;27249;48.094;-1.690;2023-11-18T08:04:45;58.79;50.46;65.23;;
41518;Laerm;27249;48.094;-1.690;2023-11-18T08:07:10;59.28;51.26;68.21;;
41518;Laerm;27249;48.094;-1.690;2023-11-18T08:09:35;58.68;48.76;77.91;;
41518;Laerm;27249;48.094;-1.690;2023-11-18T08:12:03;64.30;49.38;78.78;;
41518;Laerm;27249;48.094;-1.690;2023-11-18T08:14:30;58.67;49.79;65.69;;
41518;Laerm;27249;48.094;-1.690;2023-11-18T08:16:56;58.76;51.22;68.76;;
41518;Laerm;27249;48.094;-1.690;2023-11-18T08:19:21;56.93;48.18;67.32;;
41518;Laerm;27249;48.094;-1.690;2023-11-18T08:21:48;57.67;50.39;64.30;;
41518;Laerm;27249;48.094;-1.690;2023-11-18T08:24:13;57.51;48.48;65.21;;
41518;Laerm;27249;48.094;-1.690;2023-11-18T08:26:38;57.25;48.42;67.10;;
41518;Laerm;27249;48.094;-1.690;2023-11-18T08:29:04;59.23;50.24;66.79;;
41518;Laerm;27249;48.094;-1.690;2023-11-18T08:31:29;56.34;46.84;64.93;;
41518;Laerm;27249;48.094;-1.690;2023-11-18T08:33:55;56.84;47.50;65.04;;
41518;Laerm;27249;48.094;-1.690;2023-11-18T08:36:21;57.06;50.86;63.06;;
41518;Laerm;27249;48.094;-1.690;2023-11-18T08:38:52;59.47;52.40;66.75;;
41518;Laerm;27249;48.094;-1.690;2023-11-18T08:41:17;59.86;50.30;77.79;;
41518;Laerm;27249;48.094;-1.690;2023-11-18T08:43:45;59.06;50.51;67.79;;
41518;Laerm;27249;48.094;-1.690;2023-11-18T08:46:12;58.81;49.41;65.81;;
41518;Laerm;27249;48.094;-1.690;2023-11-18T08:48:39;57.99;52.98;64.60;;
41518;Laerm;27249;48.094;-1.690;2023-11-18T08:51:04;57.88;50.13;63.95;;
41518;Laerm;27249;48.094;-1.690;2023-11-18T08:53:32;59.68;52.31;66.42;;
41518;Laerm;27249;48.094;-1.690;2023-11-18T08:56:06;58.75;52.34;64.22;;
41518;Laerm;27249;48.094;-1.690;2023-11-18T08:58:31;58.99;50.13;71.44;;
41518;Laerm;27249;48.094;-1.690;2023-11-18T09:00:59;59.71;52.38;64.80;;
41518;Laerm;27249;48.094;-1.690;2023-11-18T09:03:30;59.19;53.07;64.78;;
41518;Laerm;27249;48.094;-1.690;2023-11-18T09:06:08;57.77;48.74;63.48;;
41518;Laerm;27249;48.094;-1.690;2023-11-18T09:08:53;58.46;50.46;65.23;;
41518;Laerm;27249;48.094;-1.690;2023-11-18T09:11:19;58.47;51.43;65.17;;
41518;Laerm;27249;48.094;-1.690;2023-11-18T09:13:45;59.13;51.70;63.98;;
41518;Laerm;27249;48.094;-1.690;2023-11-18T09:16:12;58.75;49.79;65.18;;
41518;Laerm;27249;48.094;-1.690;2023-11-18T09:18:38;60.82;51.72;66.98;;
41518;Laerm;27249;48.094;-1.690;2023-11-18T09:21:04;58.80;52.07;71.49;;
41518;Laerm;27249;48.094;-1.690;2023-11-18T09:23:31;58.44;53.03;64.04;;
41518;Laerm;27249;48.094;-1.690;2023-11-18T09:25:58;58.63;53.46;69.84;;
41518;Laerm;27249;48.094;-1.690;2023-11-18T09:28:24;58.36;50.41;68.97;;
41518;Laerm;27249;48.094;-1.690;2023-11-18T09:30:49;58.65;51.03;65.46;;
41518;Laerm;27249;48.094;-1.690;2023-11-18T09:33:18;58.80;51.56;69.09;;
41518;Laerm;27249;48.094;-1.690;2023-11-18T09:35:59;60.31;51.31;69.81;;
41518;Laerm;27249;48.094;-1.690;2023-11-18T09:38:25;58.74;49.40;65.99;;
41518;Laerm;27249;48.094;-1.690;2023-11-18T09:40:53;58.15;50.27;68.43;;
41518;Laerm;27249;48.094;-1.690;2023-11-18T09:43:18;62.05;53.24;81.01;;
41518;Laerm;27249;48.094;-1.690;2023-11-18T09:45:45;59.08;53.64;65.78;;
41518;Laerm;27249;48.094;-1.690;2023-11-18T09:48:13;58.94;52.34;71.44;;
41518;Laerm;27249;48.094;-1.690;2023-11-18T09:50:42;58.57;52.33;64.63;;
41518;Laerm;27249;48.094;-1.690;2023-11-18T09:53:09;58.80;50.94;70.02;;
41518;Laerm;27249;48.094;-1.690;2023-11-18T09:55:43;58.00;50.64;64.55;;
41518;Laerm;27249;48.094;-1.690;2023-11-18T09:58:09;58.04;50.51;65.15;;
41518;Laerm;27249;48.094;-1.690;2023-11-18T10:00:38;58.95;50.85;64.29;;
41518;Laerm;27249;48.094;-1.690;2023-11-18T10:03:06;58.83;51.87;67.42;;
41518;Laerm;27249;48.094;-1.690;2023-11-18T10:05:33;57.94;53.60;64.57;;
41518;Laerm;27249;48.094;-1.690;2023-11-18T10:08:01;58.86;51.59;68.92;;
41518;Laerm;27249;48.094;-1.690;2023-11-18T10:10:30;58.00;52.42;67.95;;
41518;Laerm;27249;48.094;-1.690;2023-11-18T10:13:01;58.23;52.85;69.46;;
41518;Laerm;27249;48.094;-1.690;2023-11-18T10:15:29;58.98;51.05;63.62;;
41518;Laerm;27249;48.094;-1.690;2023-11-18T10:17:56;58.67;52.62;66.13;;
41518;Laerm;27249;48.094;-1.690;2023-11-18T10:20:49;59.26;53.93;65.15;;
41518;Laerm;27249;48.094;-1.690;2023-11-18T10:23:18;59.32;52.90;70.18;;
41518;Laerm;27249;48.094;-1.690;2023-11-18T10:28:36;59.55;53.63;66.34;;
41518;Laerm;27249;48.094;-1.690;2023-11-18T10:31:06;58.55;51.29;65.51;;
41518;Laerm;27249;48.094;-1.690;2023-11-18T10:33:36;58.18;53.24;66.68;;
41518;Laerm;27249;48.094;-1.690;2023-11-18T10:36:02;59.18;53.62;63.69;;
41518;Laerm;27249;48.094;-1.690;2023-11-18T10:38:32;57.49;52.22;62.93;;
41518;Laerm;27249;48.094;-1.690;2023-11-18T10:40:58;57.72;50.18;70.18;;
41518;Laerm;27249;48.094;-1.690;2023-11-18T10:43:23;59.06;50.92;71.60;;
41518;Laerm;27249;48.094;-1.690;2023-11-18T10:48:37;68.59;51.77;84.09;;
41518;Laerm;27249;48.094;-1.690;2023-11-18T10:51:06;59.09;52.08;67.41;;
41518;Laerm;27249;48.094;-1.690;2023-11-18T10:53:31;58.63;52.41;66.96;;
41518;Laerm;27249;48.094;-1.690;2023-11-18T10:55:57;59.39;51.61;67.47;;
41518;Laerm;27249;48.094;-1.690;2023-11-18T10:58:23;58.80;52.41;66.65;;
41518;Laerm;27249;48.094;-1.690;2023-11-18T11:00:51;58.60;52.71;79.16;;
41518;Laerm;27249;48.094;-1.690;2023-11-18T11:03:21;58.64;52.02;64.04;;
41518;Laerm;27249;48.094;-1.690;2023-11-18T11:05:48;57.60;52.13;64.28;;
41518;Laerm;27249;48.094;-1.690;2023-11-18T11:08:14;59.36;51.87;67.98;;
41518;Laerm;27249;48.094;-1.690;2023-11-18T11:10:41;58.47;50.48;66.36;;
41518;Laerm;27249;48.094;-1.690;2023-11-18T11:13:09;59.41;52.21;71.65;;
41518;Laerm;27249;48.094;-1.690;2023-11-18T11:15:40;58.38;51.64;65.63;;
41518;Laerm;27249;48.094;-1.690;2023-11-18T11:18:08;58.85;50.74;66.64;;
41518;Laerm;27249;48.094;-1.690;2023-11-18T11:20:41;59.27;52.68;64.55;;
41518;Laerm;27249;48.094;-1.690;2023-11-18T11:25:51;58.54;52.26;65.37;;
41518;Laerm;27249;48.094;-1.690;2023-11-18T11:28:20;59.09;51.44;64.01;;
41518;Laerm;27249;48.094;-1.690;2023-11-18T11:30:50;59.74;53.62;67.67;;
41518;Laerm;27249;48.094;-1.690;2023-11-18T11:33:29;59.34;52.30;65.98;;
41518;Laerm;27249;48.094;-1.690;2023-11-18T11:36:02;60.12;54.32;67.48;;
41518;Laerm;27249;48.094;-1.690;2023-11-18T11:38:28;58.15;52.28;65.13;;
41518;Laerm;27249;48.094;-1.690;2023-11-18T11:40:54;59.16;52.06;72.13;;
41518;Laerm;27249;48.094;-1.690;2023-11-18T11:43:20;59.13;52.42;64.53;;
41518;Laerm;27249;48.094;-1.690;2023-11-18T11:45:52;58.47;52.64;67.54;;
41518;Laerm;27249;48.094;-1.690;2023-11-18T11:48:19;57.92;51.33;66.09;;
41518;Laerm;27249;48.094;-1.690;2023-11-18T11:51:00;59.32;53.98;67.54;;
41518;Laerm;27249;48.094;-1.690;2023-11-18T11:53:30;58.84;51.51;67.66;;
41518;Laerm;27249;48.094;-1.690;2023-11-18T11:55:57;58.61;51.09;66.07;;
41518;Laerm;27249;48.094;-1.690;2023-11-18T11:58:31;59.96;54.03;67.26;;
41518;Laerm;27249;48.094;-1.690;2023-11-18T12:01:02;57.98;50.28;64.64;;
41518;Laerm;27249;48.094;-1.690;2023-11-18T12:03:32;58.76;52.22;67.96;;
41518;Laerm;27249;48.094;-1.690;2023-11-18T12:06:01;57.88;51.03;74.89;;
41518;Laerm;27249;48.094;-1.690;2023-11-18T12:08:32;58.08;51.31;65.01;;
41518;Laerm;27249;48.094;-1.690;2023-11-18T12:10:58;57.40;48.74;62.59;;
41518;Laerm;27249;48.094;-1.690;2023-11-18T12:13:24;59.34;54.24;77.33;;
41518;Laerm;27249;48.094;-1.690;2023-11-18T12:18:19;57.96;50.83;67.10;;
41518;Laerm;27249;48.094;-1.690;2023-11-18T12:20:47;57.81;51.01;67.32;;
41518;Laerm;27249;48.094;-1.690;2023-11-18T12:23:13;57.12;49.29;63.39;;
41518;Laerm;27249;48.094;-1.690;2023-11-18T12:25:43;58.89;49.88;69.46;;
41518;Laerm;27249;48.094;-1.690;2023-11-18T12:28:11;57.96;49.40;63.85;;
41518;Laerm;27249;48.094;-1.690;2023-11-18T12:30:39;58.30;50.84;74.12;;
41518;Laerm;27249;48.094;-1.690;2023-11-18T12:33:09;58.45;51.78;72.92;;
41518;Laerm;27249;48.094;-1.690;2023-11-18T12:41:10;57.57;49.50;69.47;;
41518;Laerm;27249;48.094;-1.690;2023-11-18T12:43:48;57.43;51.06;63.81;;
41518;Laerm;27249;48.094;-1.690;2023-11-18T12:48:45;58.56;50.62;66.40;;
41518;Laerm;27249;48.094;-1.690;2023-11-18T12:51:14;59.05;52.33;64.73;;
41518;Laerm;27249;48.094;-1.690;2023-11-18T12:53:46;58.44;50.93;67.29;;
41518;Laerm;27249;48.094;-1.690;2023-11-18T12:56:12;58.26;50.37;74.59;;
41518;Laerm;27249;48.094;-1.690;2023-11-18T12:58:38;57.10;49.71;67.06;;
41518;Laerm;27249;48.094;-1.690;2023-11-18T13:01:04;58.58;50.36;68.16;;
41518;Laerm;27249;48.094;-1.690;2023-11-18T13:03:29;57.64;51.13;72.55;;
41518;Laerm;27249;48.094;-1.690;2023-11-18T13:05:54;58.66;50.95;76.51;;
41518;Laerm;27249;48.094;-1.690;2023-11-18T13:08:21;58.86;52.42;68.95;;
41518;Laerm;27249;48.094;-1.690;2023-11-18T13:10:47;58.47;52.00;70.74;;
41518;Laerm;27249;48.094;-1.690;2023-11-18T13:13:13;60.14;54.16;70.70;;
41518;Laerm;27249;48.094;-1.690;2023-11-18T13:15:42;57.25;49.75;63.27;;
41518;Laerm;27249;48.094;-1.690;2023-11-18T13:18:07;58.23;52.26;70.36;;
41518;Laerm;27249;48.094;-1.690;2023-11-18T13:20:34;58.95;52.11;64.74;;
41518;Laerm;27249;48.094;-1.690;2023-11-18T13:23:02;58.20;52.02;64.97;;
41518;Laerm;27249;48.094;-1.690;2023-11-18T13:25:34;58.15;53.21;67.00;;
41518;Laerm;27249;48.094;-1.690;2023-11-18T13:27:59;58.60;51.52;72.77;;
41518;Laerm;27249;48.094;-1.690;2023-11-18T13:30:26;57.93;51.48;68.45;;
41518;Laerm;27249;48.094;-1.690;2023-11-18T13:32:52;57.70;50.74;70.69;;
41518;Laerm;27249;48.094;-1.690;2023-11-18T13:35:17;56.45;49.59;75.71;;
41518;Laerm;27249;48.094;-1.690;2023-11-18T13:37:47;59.49;51.68;73.23;;
41518;Laerm;27249;48.094;-1.690;2023-11-18T13:40:15;57.87;50.35;75.81;;
41518;Laerm;27249;48.094;-1.690;2023-11-18T13:42:43;57.87;50.42;67.16;;
41518;Laerm;27249;48.094;-1.690;2023-11-18T13:45:09;57.74;51.05;65.17;;
41518;Laerm;27249;48.094;-1.690;2023-11-18T13:47:37;57.62;51.77;64.81;;
41518;Laerm;27249;48.094;-1.690;2023-11-18T13:50:05;57.44;52.00;62.34;;
41518;Laerm;27249;48.094;-1.690;2023-11-18T13:52:31;57.76;50.10;70.12;;